sensor_id;sensor_type;location;lat;lon;timestamp;temperature;humidity
20803;DHT22;10562;-33.856;151.182;2024-01-06T00:02:28;29.70;99.90
20803;DHT22;10562;-33.856;151.182;2024-01-06T00:05:02;29.80;99.90
20803;DHT22;10562;-33.856;151.182;2024-01-06T00:07:33;30.00;99.90
20803;DHT22;10562;-33.856;151.182;2024-01-06T00:10:04;30.10;99.90
20803;DHT22;10562;-33.856;151.182;2024-01-06T00:12:37;29.70;99.90
20803;DHT22;10562;-33.856;151.182;2024-01-06T00:15:08;29.30;99.90
20803;DHT22;10562;-33.856;151.182;2024-01-06T00:17:39;29.10;99.90
20803;DHT22;10562;-33.856;151.182;2024-01-06T00:20:10;28.90;99.90
20803;DHT22;10562;-33.856;151.182;2024-01-06T00:22:41;28.80;99.90
20803;DHT22;10562;-33.856;151.182;2024-01-06T00:25:12;28.50;99.90
20803;DHT22;10562;-33.856;151.182;2024-01-06T00:27:44;28.70;99.90
20803;DHT22;10562;-33.856;151.182;2024-01-06T00:30:15;28.70;99.90
20803;DHT22;10562;-33.856;151.182;2024-01-06T00:32:47;29.00;99.90
20803;DHT22;10562;-33.856;151.182;2024-01-06T00:35:17;29.60;99.90
20803;DHT22;10562;-33.856;151.182;2024-01-06T00:37:48;29.80;99.90
20803;DHT22;10562;-33.856;151.182;2024-01-06T00:40:19;30.10;99.90
20803;DHT22;10562;-33.856;151.182;2024-01-06T00:42:52;30.80;99.90
20803;DHT22;10562;-33.856;151.182;2024-01-06T00:45:22;31.00;99.90
20803;DHT22;10562;-33.856;151.182;2024-01-06T00:47:53;31.30;99.90
20803;DHT22;10562;-33.856;151.182;2024-01-06T00:50:24;31.10;99.90
20803;DHT22;10562;-33.856;151.182;2024-01-06T00:52:55;30.90;99.90
20803;DHT22;10562;-33.856;151.182;2024-01-06T00:55:25;30.70;99.90
20803;DHT22;10562;-33.856;151.182;2024-01-06T00:57:58;30.30;99.90
20803;DHT22;10562;-33.856;151.182;2024-01-06T01:00:29;29.90;99.90
20803;DHT22;10562;-33.856;151.182;2024-01-06T01:03:00;29.20;99.90
20803;DHT22;10562;-33.856;151.182;2024-01-06T01:05:30;29.00;99.90
20803;DHT22;10562;-33.856;151.182;2024-01-06T01:08:02;28.90;99.90
20803;DHT22;10562;-33.856;151.182;2024-01-06T01:10:33;28.90;99.90
20803;DHT22;10562;-33.856;151.182;2024-01-06T01:13:06;29.10;99.90
20803;DHT22;10562;-33.856;151.182;2024-01-06T01:15:37;29.30;99.90
20803;DHT22;10562;-33.856;151.182;2024-01-06T01:18:07;29.40;99.90
20803;DHT22;10562;-33.856;151.182;2024-01-06T01:20:38;29.50;99.90
20803;DHT22;10562;-33.856;151.182;2024-01-06T01:23:09;29.80;99.90
20803;DHT22;10562;-33.856;151.182;2024-01-06T01:25:40;29.90;99.90
20803;DHT22;10562;-33.856;151.182;2024-01-06T01:28:13;29.90;99.90
20803;DHT22;10562;-33.856;151.182;2024-01-06T01:30:44;29.80;99.90
20803;DHT22;10562;-33.856;151.182;2024-01-06T01:33:14;29.70;99.90
20803;DHT22;10562;-33.856;151.182;2024-01-06T01:35:45;29.60;99.90
20803;DHT22;10562;-33.856;151.182;2024-01-06T01:38:16;29.70;99.90
20803;DHT22;10562;-33.856;151.182;2024-01-06T01:40:47;29.80;99.90
20803;DHT22;10562;-33.856;151.182;2024-01-06T01:43:20;30.00;99.90
20803;DHT22;10562;-33.856;151.182;2024-01-06T01:45:54;30.00;99.90
20803;DHT22;10562;-33.856;151.182;2024-01-06T01:48:26;30.00;99.90
20803;DHT22;10562;-33.856;151.182;2024-01-06T01:50:57;30.10;99.90
20803;DHT22;10562;-33.856;151.182;2024-01-06T01:53:28;30.30;99.90
20803;DHT22;10562;-33.856;151.182;2024-01-06T01:55:59;30.20;99.90
20803;DHT22;10562;-33.856;151.182;2024-01-06T01:58:33;30.50;99.90
20803;DHT22;10562;-33.856;151.182;2024-01-06T02:01:05;30.40;99.90
20803;DHT22;10562;-33.856;151.182;2024-01-06T02:03:36;30.30;99.90
20803;DHT22;10562;-33.856;151.182;2024-01-06T02:06:07;30.20;99.90
20803;DHT22;10562;-33.856;151.182;2024-01-06T02:08:38;30.40;99.90
20803;DHT22;10562;-33.856;151.182;2024-01-06T02:11:12;30.40;99.90
20803;DHT22;10562;-33.856;151.182;2024-01-06T02:13:59;30.70;99.90
20803;DHT22;10562;-33.856;151.182;2024-01-06T02:16:31;31.00;99.90
20803;DHT22;10562;-33.856;151.182;2024-01-06T02:19:02;30.70;99.90
20803;DHT22;10562;-33.856;151.182;2024-01-06T02:21:35;30.80;99.90
20803;DHT22;10562;-33.856;151.182;2024-01-06T02:24:11;31.00;99.90
20803;DHT22;10562;-33.856;151.182;2024-01-06T02:26:42;31.20;99.90
20803;DHT22;10562;-33.856;151.182;2024-01-06T02:29:13;31.20;99.90
20803;DHT22;10562;-33.856;151.182;2024-01-06T02:31:44;31.20;99.90
20803;DHT22;10562;-33.856;151.182;2024-01-06T02:34:20;31.10;99.90
20803;DHT22;10562;-33.856;151.182;2024-01-06T02:36:52;30.50;99.90
20803;DHT22;10562;-33.856;151.182;2024-01-06T02:39:29;30.00;99.90
20803;DHT22;10562;-33.856;151.182;2024-01-06T02:42:09;30.00;99.90
20803;DHT22;10562;-33.856;151.182;2024-01-06T02:44:40;30.20;99.90
20803;DHT22;10562;-33.856;151.182;2024-01-06T02:47:11;30.50;99.90
20803;DHT22;10562;-33.856;151.182;2024-01-06T02:49:42;30.40;99.90
20803;DHT22;10562;-33.856;151.182;2024-01-06T02:52:13;30.30;99.90
20803;DHT22;10562;-33.856;151.182;2024-01-06T02:54:48;30.10;99.90
20803;DHT22;10562;-33.856;151.182;2024-01-06T02:57:25;29.80;99.90
20803;DHT22;10562;-33.856;151.182;2024-01-06T03:00:08;29.70;99.90
20803;DHT22;10562;-33.856;151.182;2024-01-06T03:02:40;29.90;99.90
20803;DHT22;10562;-33.856;151.182;2024-01-06T03:05:11;30.00;99.90
20803;DHT22;10562;-33.856;151.182;2024-01-06T03:07:42;30.10;99.90
20803;DHT22;10562;-33.856;151.182;2024-01-06T03:10:16;30.30;99.90
20803;DHT22;10562;-33.856;151.182;2024-01-06T03:12:55;30.10;99.90
20803;DHT22;10562;-33.856;151.182;2024-01-06T03:15:27;29.90;99.90
20803;DHT22;10562;-33.856;151.182;2024-01-06T03:17:58;29.90;99.90
20803;DHT22;10562;-33.856;151.182;2024-01-06T03:20:29;29.60;99.90
20803;DHT22;10562;-33.856;151.182;2024-01-06T03:23:00;29.70;99.90
20803;DHT22;10562;-33.856;151.182;2024-01-06T03:25:33;29.60;99.90
20803;DHT22;10562;-33.856;151.182;2024-01-06T03:28:04;29.70;99.90
20803;DHT22;10562;-33.856;151.182;2024-01-06T03:30:34;30.10;99.90
20803;DHT22;10562;-33.856;151.182;2024-01-06T03:33:06;30.20;99.90
20803;DHT22;10562;-33.856;151.182;2024-01-06T03:35:39;30.40;99.90
20803;DHT22;10562;-33.856;151.182;2024-01-06T03:38:11;30.70;99.90
20803;DHT22;10562;-33.856;151.182;2024-01-06T03:40:44;30.80;99.90
20803;DHT22;10562;-33.856;151.182;2024-01-06T03:43:14;30.80;99.90
20803;DHT22;10562;-33.856;151.182;2024-01-06T03:45:45;30.80;99.90
20803;DHT22;10562;-33.856;151.182;2024-01-06T03:48:16;31.00;99.90
20803;DHT22;10562;-33.856;151.182;2024-01-06T03:50:47;31.00;99.90
20803;DHT22;10562;-33.856;151.182;2024-01-06T03:53:20;31.00;99.90
20803;DHT22;10562;-33.856;151.182;2024-01-06T03:55:58;30.80;99.90
20803;DHT22;10562;-33.856;151.182;2024-01-06T03:58:30;30.70;99.90
20803;DHT22;10562;-33.856;151.182;2024-01-06T04:01:01;30.70;99.90
20803;DHT22;10562;-33.856;151.182;2024-01-06T04:03:32;30.70;99.90
20803;DHT22;10562;-33.856;151.182;2024-01-06T04:06:06;30.60;99.90
20803;DHT22;10562;-33.856;151.182;2024-01-06T04:08:38;30.70;99.90
20803;DHT22;10562;-33.856;151.182;2024-01-06T04:11:11;30.80;99.90
20803;DHT22;10562;-33.856;151.182;2024-01-06T04:13:45;31.20;99.90
20803;DHT22;10562;-33.856;151.182;2024-01-06T04:16:16;30.80;99.90
20803;DHT22;10562;-33.856;151.182;2024-01-06T04:18:47;30.60;99.90
20803;DHT22;10562;-33.856;151.182;2024-01-06T04:21:17;31.00;99.90
20803;DHT22;10562;-33.856;151.182;2024-01-06T04:23:50;31.40;99.90
20803;DHT22;10562;-33.856;151.182;2024-01-06T04:26:22;31.60;99.90
20803;DHT22;10562;-33.856;151.182;2024-01-06T04:28:53;31.50;99.90
20803;DHT22;10562;-33.856;151.182;2024-01-06T04:31:24;31.60;99.90
20803;DHT22;10562;-33.856;151.182;2024-01-06T04:33:55;31.80;99.90
20803;DHT22;10562;-33.856;151.182;2024-01-06T04:36:25;31.80;99.90
20803;DHT22;10562;-33.856;151.182;2024-01-06T04:38:56;31.10;99.90
20803;DHT22;10562;-33.856;151.182;2024-01-06T04:41:29;31.40;99.90
20803;DHT22;10562;-33.856;151.182;2024-01-06T04:44:00;32.00;99.90
20803;DHT22;10562;-33.856;151.182;2024-01-06T04:46:33;32.40;99.90
20803;DHT22;10562;-33.856;151.182;2024-01-06T04:49:03;32.40;99.90
20803;DHT22;10562;-33.856;151.182;2024-01-06T04:51:34;32.10;99.90
20803;DHT22;10562;-33.856;151.182;2024-01-06T04:54:05;31.80;99.90
20803;DHT22;10562;-33.856;151.182;2024-01-06T04:56:39;31.10;99.90
20803;DHT22;10562;-33.856;151.182;2024-01-06T04:59:09;30.80;99.90
20803;DHT22;10562;-33.856;151.182;2024-01-06T05:01:43;30.70;99.90
20803;DHT22;10562;-33.856;151.182;2024-01-06T05:04:14;30.90;99.90
20803;DHT22;10562;-33.856;151.182;2024-01-06T05:06:45;30.40;99.90
20803;DHT22;10562;-33.856;151.182;2024-01-06T05:09:15;30.30;99.90
20803;DHT22;10562;-33.856;151.182;2024-01-06T05:11:48;30.50;99.90
20803;DHT22;10562;-33.856;151.182;2024-01-06T05:14:19;30.70;99.90
20803;DHT22;10562;-33.856;151.182;2024-01-06T05:16:50;30.70;99.90
20803;DHT22;10562;-33.856;151.182;2024-01-06T05:19:20;30.90;99.90
20803;DHT22;10562;-33.856;151.182;2024-01-06T05:21:51;30.90;99.90
20803;DHT22;10562;-33.856;151.182;2024-01-06T05:24:22;30.80;99.90
20803;DHT22;10562;-33.856;151.182;2024-01-06T05:26:55;30.90;99.90
20803;DHT22;10562;-33.856;151.182;2024-01-06T05:29:26;31.00;99.90
20803;DHT22;10562;-33.856;151.182;2024-01-06T05:31:56;31.10;99.90
20803;DHT22;10562;-33.856;151.182;2024-01-06T05:34:27;31.60;99.90
20803;DHT22;10562;-33.856;151.182;2024-01-06T05:36:58;31.40;99.90
20803;DHT22;10562;-33.856;151.182;2024-01-06T05:39:29;31.40;99.90
20803;DHT22;10562;-33.856;151.182;2024-01-06T05:42:00;31.40;99.90
20803;DHT22;10562;-33.856;151.182;2024-01-06T05:44:31;31.10;99.90
20803;DHT22;10562;-33.856;151.182;2024-01-06T05:47:02;31.00;99.90
20803;DHT22;10562;-33.856;151.182;2024-01-06T05:49:33;31.30;99.90
20803;DHT22;10562;-33.856;151.182;2024-01-06T05:52:03;31.10;99.90
20803;DHT22;10562;-33.856;151.182;2024-01-06T05:54:34;31.00;99.90
20803;DHT22;10562;-33.856;151.182;2024-01-06T05:57:07;30.90;99.90
20803;DHT22;10562;-33.856;151.182;2024-01-06T05:59:38;30.90;99.90
20803;DHT22;10562;-33.856;151.182;2024-01-06T06:02:09;30.70;99.90
20803;DHT22;10562;-33.856;151.182;2024-01-06T06:04:39;30.40;99.90
20803;DHT22;10562;-33.856;151.182;2024-01-06T06:07:10;29.40;99.90
20803;DHT22;10562;-33.856;151.182;2024-01-06T06:09:41;28.70;99.90
20803;DHT22;10562;-33.856;151.182;2024-01-06T06:12:16;27.80;99.90
20803;DHT22;10562;-33.856;151.182;2024-01-06T06:14:47;27.20;99.90
20803;DHT22;10562;-33.856;151.182;2024-01-06T06:17:18;26.90;99.90
20803;DHT22;10562;-33.856;151.182;2024-01-06T06:19:48;26.60;99.90
20803;DHT22;10562;-33.856;151.182;2024-01-06T06:22:19;26.30;99.90
20803;DHT22;10562;-33.856;151.182;2024-01-06T06:24:50;26.10;99.90
20803;DHT22;10562;-33.856;151.182;2024-01-06T06:27:23;25.90;99.90
20803;DHT22;10562;-33.856;151.182;2024-01-06T06:29:54;25.70;99.90
20803;DHT22;10562;-33.856;151.182;2024-01-06T06:32:25;25.80;99.90
20803;DHT22;10562;-33.856;151.182;2024-01-06T06:34:56;25.70;99.90
20803;DHT22;10562;-33.856;151.182;2024-01-06T06:37:27;25.60;99.90
20803;DHT22;10562;-33.856;151.182;2024-01-06T06:39:56;25.40;99.90
20803;DHT22;10562;-33.856;151.182;2024-01-06T06:42:29;25.40;99.90
20803;DHT22;10562;-33.856;151.182;2024-01-06T06:44:59;25.30;99.90
20803;DHT22;10562;-33.856;151.182;2024-01-06T06:47:30;25.20;99.90
20803;DHT22;10562;-33.856;151.182;2024-01-06T06:50:01;25.00;99.90
20803;DHT22;10562;-33.856;151.182;2024-01-06T06:52:32;25.00;99.90
20803;DHT22;10562;-33.856;151.182;2024-01-06T06:55:03;24.90;99.90
20803;DHT22;10562;-33.856;151.182;2024-01-06T06:57:35;24.80;99.90
20803;DHT22;10562;-33.856;151.182;2024-01-06T07:00:07;24.70;99.90
20803;DHT22;10562;-33.856;151.182;2024-01-06T07:02:38;24.70;99.90
20803;DHT22;10562;-33.856;151.182;2024-01-06T07:05:09;24.70;99.90
20803;DHT22;10562;-33.856;151.182;2024-01-06T07:07:39;24.70;99.90
20803;DHT22;10562;-33.856;151.182;2024-01-06T07:10:12;24.60;99.90
20803;DHT22;10562;-33.856;151.182;2024-01-06T07:12:45;24.50;99.90
20803;DHT22;10562;-33.856;151.182;2024-01-06T07:15:16;24.50;99.90
20803;DHT22;10562;-33.856;151.182;2024-01-06T07:17:46;24.50;99.90
20803;DHT22;10562;-33.856;151.182;2024-01-06T07:20:21;24.50;99.90
20803;DHT22;10562;-33.856;151.182;2024-01-06T07:22:51;24.50;99.90
20803;DHT22;10562;-33.856;151.182;2024-01-06T07:25:22;24.40;99.90
20803;DHT22;10562;-33.856;151.182;2024-01-06T07:27:55;24.40;99.90
20803;DHT22;10562;-33.856;151.182;2024-01-06T07:30:26;24.40;99.90
20803;DHT22;10562;-33.856;151.182;2024-01-06T07:33:00;24.40;99.90
20803;DHT22;10562;-33.856;151.182;2024-01-06T07:35:31;24.30;99.90
20803;DHT22;10562;-33.856;151.182;2024-01-06T07:38:02;24.10;99.90
20803;DHT22;10562;-33.856;151.182;2024-01-06T07:40:33;24.00;99.90
20803;DHT22;10562;-33.856;151.182;2024-01-06T07:43:07;23.90;99.90
20803;DHT22;10562;-33.856;151.182;2024-01-06T07:45:37;23.90;99.90
20803;DHT22;10562;-33.856;151.182;2024-01-06T07:48:09;23.80;99.90
20803;DHT22;10562;-33.856;151.182;2024-01-06T07:50:40;23.80;99.90
20803;DHT22;10562;-33.856;151.182;2024-01-06T07:53:11;23.80;99.90
20803;DHT22;10562;-33.856;151.182;2024-01-06T07:55:42;23.70;99.90
20803;DHT22;10562;-33.856;151.182;2024-01-06T07:58:15;23.70;99.90
20803;DHT22;10562;-33.856;151.182;2024-01-06T08:00:46;23.70;99.90
20803;DHT22;10562;-33.856;151.182;2024-01-06T08:03:16;23.70;99.90
20803;DHT22;10562;-33.856;151.182;2024-01-06T08:05:47;23.70;99.90
20803;DHT22;10562;-33.856;151.182;2024-01-06T08:08:18;23.60;99.90
20803;DHT22;10562;-33.856;151.182;2024-01-06T08:10:49;23.60;99.90
20803;DHT22;10562;-33.856;151.182;2024-01-06T08:13:21;23.60;99.90
20803;DHT22;10562;-33.856;151.182;2024-01-06T08:15:52;23.50;99.90
20803;DHT22;10562;-33.856;151.182;2024-01-06T08:18:23;23.40;99.90
20803;DHT22;10562;-33.856;151.182;2024-01-06T08:20:54;23.40;99.90
20803;DHT22;10562;-33.856;151.182;2024-01-06T08:23:26;23.30;99.90
20803;DHT22;10562;-33.856;151.182;2024-01-06T08:25:57;23.20;99.90
20803;DHT22;10562;-33.856;151.182;2024-01-06T08:28:30;23.20;99.90
20803;DHT22;10562;-33.856;151.182;2024-01-06T08:31:01;23.20;99.90
20803;DHT22;10562;-33.856;151.182;2024-01-06T08:33:32;23.20;99.90
20803;DHT22;10562;-33.856;151.182;2024-01-06T08:36:03;23.10;99.90
20803;DHT22;10562;-33.856;151.182;2024-01-06T08:38:34;23.10;99.90
20803;DHT22;10562;-33.856;151.182;2024-01-06T08:41:05;23.10;99.90
20803;DHT22;10562;-33.856;151.182;2024-01-06T08:43:38;23.00;99.90
20803;DHT22;10562;-33.856;151.182;2024-01-06T08:46:09;22.90;99.90
20803;DHT22;10562;-33.856;151.182;2024-01-06T08:48:39;22.90;99.90
20803;DHT22;10562;-33.856;151.182;2024-01-06T08:51:11;22.80;99.90
20803;DHT22;10562;-33.856;151.182;2024-01-06T08:53:41;22.80;99.90
20803;DHT22;10562;-33.856;151.182;2024-01-06T08:56:12;22.70;99.90
20803;DHT22;10562;-33.856;151.182;2024-01-06T08:58:47;22.70;99.90
20803;DHT22;10562;-33.856;151.182;2024-01-06T09:01:19;22.60;99.90
20803;DHT22;10562;-33.856;151.182;2024-01-06T09:03:50;22.60;99.90
20803;DHT22;10562;-33.856;151.182;2024-01-06T09:06:20;22.60;99.90
20803;DHT22;10562;-33.856;151.182;2024-01-06T09:08:52;22.60;99.90
20803;DHT22;10562;-33.856;151.182;2024-01-06T09:11:23;22.50;99.90
20803;DHT22;10562;-33.856;151.182;2024-01-06T09:13:56;22.50;99.90
20803;DHT22;10562;-33.856;151.182;2024-01-06T09:16:32;22.50;99.90
20803;DHT22;10562;-33.856;151.182;2024-01-06T09:19:04;22.50;99.90
20803;DHT22;10562;-33.856;151.182;2024-01-06T09:21:35;22.40;99.90
20803;DHT22;10562;-33.856;151.182;2024-01-06T09:24:06;22.40;99.90
20803;DHT22;10562;-33.856;151.182;2024-01-06T09:26:37;22.50;99.90
20803;DHT22;10562;-33.856;151.182;2024-01-06T09:29:10;22.40;99.90
20803;DHT22;10562;-33.856;151.182;2024-01-06T09:31:40;22.40;99.90
20803;DHT22;10562;-33.856;151.182;2024-01-06T09:34:11;22.30;99.90
20803;DHT22;10562;-33.856;151.182;2024-01-06T09:36:42;22.30;99.90
20803;DHT22;10562;-33.856;151.182;2024-01-06T09:39:14;22.30;99.90
20803;DHT22;10562;-33.856;151.182;2024-01-06T09:41:45;22.30;99.90
20803;DHT22;10562;-33.856;151.182;2024-01-06T09:44:18;22.20;99.90
20803;DHT22;10562;-33.856;151.182;2024-01-06T09:46:50;22.30;99.90
20803;DHT22;10562;-33.856;151.182;2024-01-06T09:49:24;22.20;99.90
20803;DHT22;10562;-33.856;151.182;2024-01-06T09:51:59;22.20;99.90
20803;DHT22;10562;-33.856;151.182;2024-01-06T09:54:35;22.20;99.90
20803;DHT22;10562;-33.856;151.182;2024-01-06T09:57:08;22.20;99.90
20803;DHT22;10562;-33.856;151.182;2024-01-06T09:59:41;22.10;99.90
20803;DHT22;10562;-33.856;151.182;2024-01-06T10:02:16;22.10;99.90
20803;DHT22;10562;-33.856;151.182;2024-01-06T10:04:48;22.10;99.90
20803;DHT22;10562;-33.856;151.182;2024-01-06T10:07:19;22.00;99.90
20803;DHT22;10562;-33.856;151.182;2024-01-06T10:09:50;22.10;99.90
20803;DHT22;10562;-33.856;151.182;2024-01-06T10:12:24;22.00;99.90
20803;DHT22;10562;-33.856;151.182;2024-01-06T10:14:58;22.00;99.90
20803;DHT22;10562;-33.856;151.182;2024-01-06T10:17:28;22.00;99.90
20803;DHT22;10562;-33.856;151.182;2024-01-06T10:20:00;22.00;99.90
20803;DHT22;10562;-33.856;151.182;2024-01-06T10:22:31;22.00;99.90
20803;DHT22;10562;-33.856;151.182;2024-01-06T10:25:02;22.00;99.90
20803;DHT22;10562;-33.856;151.182;2024-01-06T10:27:35;21.90;99.90
20803;DHT22;10562;-33.856;151.182;2024-01-06T10:30:09;21.90;99.90
20803;DHT22;10562;-33.856;151.182;2024-01-06T10:32:42;21.90;99.90
20803;DHT22;10562;-33.856;151.182;2024-01-06T10:35:13;21.90;99.90
20803;DHT22;10562;-33.856;151.182;2024-01-06T10:37:45;21.90;99.90
20803;DHT22;10562;-33.856;151.182;2024-01-06T10:40:17;21.90;99.90
20803;DHT22;10562;-33.856;151.182;2024-01-06T10:42:48;21.80;99.90
20803;DHT22;10562;-33.856;151.182;2024-01-06T10:45:22;21.80;99.90
20803;DHT22;10562;-33.856;151.182;2024-01-06T10:47:53;21.70;99.90
20803;DHT22;10562;-33.856;151.182;2024-01-06T10:50:25;21.70;99.90
20803;DHT22;10562;-33.856;151.182;2024-01-06T10:52:58;21.70;99.90
20803;DHT22;10562;-33.856;151.182;2024-01-06T10:55:31;21.70;99.90
20803;DHT22;10562;-33.856;151.182;2024-01-06T10:58:03;21.70;99.90
20803;DHT22;10562;-33.856;151.182;2024-01-06T11:00:37;21.70;99.90
20803;DHT22;10562;-33.856;151.182;2024-01-06T11:03:08;21.70;99.90
20803;DHT22;10562;-33.856;151.182;2024-01-06T11:05:40;21.70;99.90
20803;DHT22;10562;-33.856;151.182;2024-01-06T11:08:12;21.70;99.90
20803;DHT22;10562;-33.856;151.182;2024-01-06T11:10:42;21.70;99.90
20803;DHT22;10562;-33.856;151.182;2024-01-06T11:13:14;21.70;99.90
20803;DHT22;10562;-33.856;151.182;2024-01-06T11:15:51;21.60;99.90
20803;DHT22;10562;-33.856;151.182;2024-01-06T11:18:35;21.60;99.90
20803;DHT22;10562;-33.856;151.182;2024-01-06T11:21:22;21.60;99.90
20803;DHT22;10562;-33.856;151.182;2024-01-06T11:24:14;21.60;99.90
20803;DHT22;10562;-33.856;151.182;2024-01-06T11:26:51;21.60;99.90
20803;DHT22;10562;-33.856;151.182;2024-01-06T11:29:22;21.60;99.90
20803;DHT22;10562;-33.856;151.182;2024-01-06T11:32:19;21.60;99.90
20803;DHT22;10562;-33.856;151.182;2024-01-06T11:34:50;21.60;99.90
20803;DHT22;10562;-33.856;151.182;2024-01-06T11:37:25;21.60;99.90
20803;DHT22;10562;-33.856;151.182;2024-01-06T11:39:56;21.60;99.90
20803;DHT22;10562;-33.856;151.182;2024-01-06T11:42:33;21.60;99.90
20803;DHT22;10562;-33.856;151.182;2024-01-06T11:45:05;21.60;99.90
20803;DHT22;10562;-33.856;151.182;2024-01-06T11:47:37;21.50;99.90
20803;DHT22;10562;-33.856;151.182;2024-01-06T11:50:10;21.50;99.90
20803;DHT22;10562;-33.856;151.182;2024-01-06T11:52:42;21.50;99.90
20803;DHT22;10562;-33.856;151.182;2024-01-06T11:55:13;21.50;99.90
20803;DHT22;10562;-33.856;151.182;2024-01-06T11:57:45;21.50;99.90
20803;DHT22;10562;-33.856;151.182;2024-01-06T12:00:17;21.50;99.90
20803;DHT22;10562;-33.856;151.182;2024-01-06T12:02:50;21.50;99.90
20803;DHT22;10562;-33.856;151.182;2024-01-06T12:05:25;21.50;99.90
20803;DHT22;10562;-33.856;151.182;2024-01-06T12:07:57;21.50;99.90
20803;DHT22;10562;-33.856;151.182;2024-01-06T12:10:28;21.50;99.90
20803;DHT22;10562;-33.856;151.182;2024-01-06T12:13:01;21.50;99.90
20803;DHT22;10562;-33.856;151.182;2024-01-06T12:15:32;21.50;99.90
20803;DHT22;10562;-33.856;151.182;2024-01-06T12:18:07;21.50;99.90
20803;DHT22;10562;-33.856;151.182;2024-01-06T12:20:38;21.40;99.90
20803;DHT22;10562;-33.856;151.182;2024-01-06T12:23:09;21.40;99.90
20803;DHT22;10562;-33.856;151.182;2024-01-06T12:25:41;21.40;99.90
20803;DHT22;10562;-33.856;151.182;2024-01-06T12:28:16;21.50;99.90
20803;DHT22;10562;-33.856;151.182;2024-01-06T12:30:47;21.40;99.90
20803;DHT22;10562;-33.856;151.182;2024-01-06T12:33:20;21.40;99.90
20803;DHT22;10562;-33.856;151.182;2024-01-06T12:35:50;21.40;99.90
20803;DHT22;10562;-33.856;151.182;2024-01-06T12:38:21;21.50;99.90
20803;DHT22;10562;-33.856;151.182;2024-01-06T12:40:56;21.50;99.90
20803;DHT22;10562;-33.856;151.182;2024-01-06T12:43:27;21.60;99.90
20803;DHT22;10562;-33.856;151.182;2024-01-06T12:45:58;21.70;99.90
20803;DHT22;10562;-33.856;151.182;2024-01-06T12:48:30;21.80;99.90
20803;DHT22;10562;-33.856;151.182;2024-01-06T12:51:01;21.90;99.90
20803;DHT22;10562;-33.856;151.182;2024-01-06T12:53:33;21.90;99.90
20803;DHT22;10562;-33.856;151.182;2024-01-06T12:56:04;21.90;99.90
20803;DHT22;10562;-33.856;151.182;2024-01-06T12:58:35;21.90;99.90
20803;DHT22;10562;-33.856;151.182;2024-01-06T13:01:06;21.90;99.90
20803;DHT22;10562;-33.856;151.182;2024-01-06T13:03:39;21.90;99.90
20803;DHT22;10562;-33.856;151.182;2024-01-06T13:06:09;21.90;99.90
20803;DHT22;10562;-33.856;151.182;2024-01-06T13:08:40;21.80;99.90
20803;DHT22;10562;-33.856;151.182;2024-01-06T13:11:12;21.70;99.90
20803;DHT22;10562;-33.856;151.182;2024-01-06T13:13:42;21.70;99.90
20803;DHT22;10562;-33.856;151.182;2024-01-06T13:16:13;21.60;99.90
20803;DHT22;10562;-33.856;151.182;2024-01-06T13:18:46;21.60;99.90
20803;DHT22;10562;-33.856;151.182;2024-01-06T13:21:17;21.60;99.90
20803;DHT22;10562;-33.856;151.182;2024-01-06T13:23:48;21.60;99.90
20803;DHT22;10562;-33.856;151.182;2024-01-06T13:26:18;21.60;99.90
20803;DHT22;10562;-33.856;151.182;2024-01-06T13:28:49;21.70;99.90
20803;DHT22;10562;-33.856;151.182;2024-01-06T13:31:20;21.70;99.90
20803;DHT22;10562;-33.856;151.182;2024-01-06T13:33:53;21.70;99.90
20803;DHT22;10562;-33.856;151.182;2024-01-06T13:36:24;21.80;99.90
20803;DHT22;10562;-33.856;151.182;2024-01-06T13:38:55;21.80;99.90
20803;DHT22;10562;-33.856;151.182;2024-01-06T13:41:27;21.70;99.90
20803;DHT22;10562;-33.856;151.182;2024-01-06T13:43:58;21.60;99.90
20803;DHT22;10562;-33.856;151.182;2024-01-06T13:46:29;21.50;99.90
20803;DHT22;10562;-33.856;151.182;2024-01-06T13:49:02;21.40;99.90
20803;DHT22;10562;-33.856;151.182;2024-01-06T13:51:32;21.30;99.90
20803;DHT22;10562;-33.856;151.182;2024-01-06T13:54:03;21.30;99.90
20803;DHT22;10562;-33.856;151.182;2024-01-06T13:56:34;21.20;99.90
20803;DHT22;10562;-33.856;151.182;2024-01-06T13:59:05;21.20;99.90
20803;DHT22;10562;-33.856;151.182;2024-01-06T14:01:36;21.20;99.90
20803;DHT22;10562;-33.856;151.182;2024-01-06T14:04:08;21.10;99.90
20803;DHT22;10562;-33.856;151.182;2024-01-06T14:06:39;21.20;99.90
20803;DHT22;10562;-33.856;151.182;2024-01-06T14:09:10;21.20;99.90
20803;DHT22;10562;-33.856;151.182;2024-01-06T14:11:41;21.30;99.90
20803;DHT22;10562;-33.856;151.182;2024-01-06T14:14:12;21.40;99.90
20803;DHT22;10562;-33.856;151.182;2024-01-06T14:16:44;21.40;99.90
20803;DHT22;10562;-33.856;151.182;2024-01-06T14:19:17;21.40;99.90
20803;DHT22;10562;-33.856;151.182;2024-01-06T14:21:47;21.40;99.90
20803;DHT22;10562;-33.856;151.182;2024-01-06T14:24:18;21.40;99.90
20803;DHT22;10562;-33.856;151.182;2024-01-06T14:26:51;21.40;99.90
20803;DHT22;10562;-33.856;151.182;2024-01-06T14:29:23;21.40;99.90
20803;DHT22;10562;-33.856;151.182;2024-01-06T14:31:53;21.50;99.90
20803;DHT22;10562;-33.856;151.182;2024-01-06T14:34:26;21.50;99.90
20803;DHT22;10562;-33.856;151.182;2024-01-06T14:37:00;21.60;99.90
20803;DHT22;10562;-33.856;151.182;2024-01-06T14:39:30;21.70;99.90
20803;DHT22;10562;-33.856;151.182;2024-01-06T14:42:02;21.70;99.90
20803;DHT22;10562;-33.856;151.182;2024-01-06T14:44:32;21.80;99.90
20803;DHT22;10562;-33.856;151.182;2024-01-06T14:47:03;21.80;99.90
20803;DHT22;10562;-33.856;151.182;2024-01-06T14:49:36;21.80;99.90
20803;DHT22;10562;-33.856;151.182;2024-01-06T14:52:07;21.80;99.90
20803;DHT22;10562;-33.856;151.182;2024-01-06T14:54:37;21.80;99.90
20803;DHT22;10562;-33.856;151.182;2024-01-06T14:57:08;21.80;99.90
20803;DHT22;10562;-33.856;151.182;2024-01-06T14:59:39;21.90;99.90
20803;DHT22;10562;-33.856;151.182;2024-01-06T15:02:11;21.90;99.90
20803;DHT22;10562;-33.856;151.182;2024-01-06T15:04:44;21.90;99.90
20803;DHT22;10562;-33.856;151.182;2024-01-06T15:07:14;21.90;99.90
20803;DHT22;10562;-33.856;151.182;2024-01-06T15:09:45;21.90;99.90
20803;DHT22;10562;-33.856;151.182;2024-01-06T15:12:16;21.90;99.90
20803;DHT22;10562;-33.856;151.182;2024-01-06T15:14:46;22.00;99.90
20803;DHT22;10562;-33.856;151.182;2024-01-06T15:17:17;22.00;99.90